createdAt,value
2024-03-10T00:00:31.552Z,99961.25
2024-03-10T00:02:58.117Z,99946.06
2024-03-10T00:05:25.042Z,99941.94
2024-03-10T00:07:51.782Z,99954.31
2024-03-10T00:10:19.206Z,99951.19
2024-03-10T00:12:50.236Z,99936.47
2024-03-10T00:15:17.893Z,99924.44
2024-03-10T00:17:44.832Z,99959.06
2024-03-10T00:20:12.175Z,99949.44
2024-03-10T00:22:42.226Z,99954.94
2024-03-10T00:25:09.701Z,99953.28
2024-03-10T00:27:39.524Z,99957.56
2024-03-10T00:30:07.205Z,99963.78
2024-03-10T00:32:34.213Z,99949.91
2024-03-10T00:35:02.657Z,99957.03
2024-03-10T00:37:29.637Z,99953.72
2024-03-10T00:39:56.166Z,99948.47
2024-03-10T00:42:22.588Z,99942.63
2024-03-10T00:44:49.099Z,99923.88
2024-03-10T00:47:15.563Z,99924.53
2024-03-10T00:49:42.204Z,99919.56
2024-03-10T00:52:08.805Z,99926.66
2024-03-10T00:54:35.508Z,99936.47
2024-03-10T00:57:02.240Z,99921.75
2024-03-10T00:59:28.752Z,99925.56
2024-03-10T01:01:55.239Z,99935.78
2024-03-10T01:04:21.879Z,99939.25
2024-03-10T01:06:49.132Z,99929.88
2024-03-10T01:09:19.619Z,99932.50
2024-03-10T01:11:49.689Z,99920.09
2024-03-10T01:14:16.263Z,99924.84
2024-03-10T01:16:42.871Z,99938.78
2024-03-10T01:19:12.614Z,99945.25
2024-03-10T01:21:39.367Z,99964.69
2024-03-10T01:24:08.150Z,99950.88
2024-03-10T01:26:35.581Z,99931.22
2024-03-10T01:29:02.744Z,99919.34
2024-03-10T01:31:29.345Z,99958.75
2024-03-10T01:33:55.819Z,99951.16
2024-03-10T01:36:22.512Z,99958.38
2024-03-10T01:38:49.020Z,99940.72
2024-03-10T01:41:15.593Z,99945.16
2024-03-10T01:43:42.152Z,99937.06
2024-03-10T01:46:09.581Z,99916.66
2024-03-10T01:48:38.508Z,99933.31
2024-03-10T01:51:08.537Z,99908.84
2024-03-10T01:53:38.265Z,99919.03
2024-03-10T01:56:06.529Z,99908.91
2024-03-10T01:58:33.962Z,99914.22
2024-03-10T02:01:03.075Z,99919.75
2024-03-10T02:03:30.744Z,99894.56
2024-03-10T02:05:57.347Z,99898.53
2024-03-10T02:08:24.638Z,99889.75
2024-03-10T02:10:52.934Z,99867.38
2024-03-10T02:13:20.034Z,99880.44
2024-03-10T02:16:06.227Z,99876.69
2024-03-10T02:18:36.285Z,99870.28
2024-03-10T02:21:04.861Z,99826.97
2024-03-10T02:23:41.417Z,99855.16
2024-03-10T02:26:10.016Z,99858.31
2024-03-10T02:28:47.522Z,99871.06
2024-03-10T02:31:33.227Z,99872.72
2024-03-10T02:34:18.198Z,99869.16
2024-03-10T02:37:03.317Z,99873.03
2024-03-10T02:39:48.205Z,99878.44
2024-03-10T02:42:33.039Z,99889.75
2024-03-10T02:45:17.757Z,99886.47
2024-03-10T02:47:44.271Z,99888.53
2024-03-10T02:50:11.513Z,99867.16
2024-03-10T02:52:38.004Z,99879.09
2024-03-10T02:55:05.054Z,99885.31
2024-03-10T02:57:31.950Z,99855.31
2024-03-10T02:59:58.797Z,99873.19
2024-03-10T03:02:25.899Z,99858.47
2024-03-10T03:04:52.672Z,99848.13
2024-03-10T03:07:19.569Z,99857.22
2024-03-10T03:09:46.923Z,99845.22
2024-03-10T03:12:13.623Z,99833.25
2024-03-10T03:14:41.194Z,99765.28
2024-03-10T03:17:08.031Z,99842.94
2024-03-10T03:19:34.927Z,99848.41
2024-03-10T03:22:01.450Z,99831.09
2024-03-10T03:24:28.204Z,99822.38
2024-03-10T03:26:54.785Z,99851.03
2024-03-10T03:29:21.710Z,99858.66
2024-03-10T03:31:48.420Z,99836.63
2024-03-10T03:34:14.901Z,99838.66
2024-03-10T03:36:42.949Z,99821.84
2024-03-10T03:39:12.606Z,99833.56
2024-03-10T03:41:39.106Z,99828.59
2024-03-10T03:44:05.889Z,99821.84
2024-03-10T03:46:32.414Z,99811.63
2024-03-10T03:48:58.888Z,99798.88
2024-03-10T03:51:25.331Z,99820.63
2024-03-10T03:53:51.853Z,99824.81
2024-03-10T03:56:18.436Z,99833.44
2024-03-10T03:58:44.940Z,99818.59
2024-03-10T04:01:11.781Z,99830.31
2024-03-10T04:03:38.315Z,99810.31
2024-03-10T04:06:06.952Z,99787.88
2024-03-10T04:08:33.659Z,99811.41
2024-03-10T04:11:00.293Z,99806.56
2024-03-10T04:13:26.840Z,99810.59
2024-03-10T04:15:53.367Z,99809.09
2024-03-10T04:18:19.853Z,99799.03
2024-03-10T04:20:46.842Z,99777.59
2024-03-10T04:23:13.350Z,99781.63
2024-03-10T04:25:39.841Z,99797.81
2024-03-10T04:28:06.477Z,99798.97
2024-03-10T04:30:35.647Z,99790.56
2024-03-10T04:33:02.245Z,99796.91
2024-03-10T04:35:29.614Z,99781.78
2024-03-10T04:37:56.133Z,99777.34
2024-03-10T04:40:22.923Z,99753.56
2024-03-10T04:42:49.717Z,99755.22
2024-03-10T04:45:16.195Z,99759.34
2024-03-10T04:47:42.737Z,99761.38
2024-03-10T04:50:10.272Z,99755.06
2024-03-10T04:52:37.129Z,99727.97
2024-03-10T04:55:05.898Z,99771.75
2024-03-10T04:57:34.183Z,99755.56
2024-03-10T05:00:01.917Z,99777.03
2024-03-10T05:02:28.610Z,99782.81
2024-03-10T05:04:55.748Z,99747.56
2024-03-10T05:07:22.399Z,99775.63
2024-03-10T05:09:48.901Z,99767.94
2024-03-10T05:12:15.737Z,99756.22
2024-03-10T05:14:42.278Z,99741.94
2024-03-10T05:17:08.777Z,99769.03
2024-03-10T05:19:35.255Z,99769.84
2024-03-10T05:22:01.877Z,99767.00
2024-03-10T05:24:28.341Z,99779.66
2024-03-10T05:26:54.834Z,99778.16
2024-03-10T05:29:21.593Z,99783.25
2024-03-10T05:31:48.199Z,99768.38
2024-03-10T05:34:15.395Z,99771.81
2024-03-10T05:36:41.967Z,99777.06
2024-03-10T05:39:09.576Z,99770.75
2024-03-10T05:41:36.496Z,99769.50
2024-03-10T05:44:04.956Z,99771.75
2024-03-10T05:46:31.564Z,99764.28
2024-03-10T05:48:59.449Z,99753.84
2024-03-10T05:51:26.014Z,99768.00
2024-03-10T05:53:52.579Z,99734.72
2024-03-10T05:56:19.761Z,99764.44
2024-03-10T05:58:46.599Z,99763.09
2024-03-10T06:01:13.596Z,99768.16
2024-03-10T06:03:40.184Z,99766.38
2024-03-10T06:06:08.275Z,99762.66
2024-03-10T06:08:34.809Z,99766.53
2024-03-10T06:11:02.428Z,99756.44
2024-03-10T06:13:29.645Z,99763.91
2024-03-10T06:15:56.209Z,99764.88
2024-03-10T06:18:25.217Z,99742.16
2024-03-10T06:21:10.981Z,99751.94
2024-03-10T06:23:55.875Z,99746.56
2024-03-10T06:26:22.909Z,99747.91
2024-03-10T06:28:50.975Z,99749.59
2024-03-10T06:31:18.827Z,99733.91
2024-03-10T06:33:45.798Z,99741.16
2024-03-10T06:36:15.128Z,99755.78
2024-03-10T06:38:43.808Z,99759.06
2024-03-10T06:41:11.120Z,99748.50
2024-03-10T06:43:38.849Z,99763.34
2024-03-10T06:46:05.559Z,99729.22
2024-03-10T06:48:32.006Z,99761.50
2024-03-10T06:50:58.440Z,99754.69
2024-03-10T06:53:26.169Z,99745.53
2024-03-10T06:55:57.422Z,99743.56
2024-03-10T06:58:23.914Z,99758.72
2024-03-10T07:00:50.460Z,99758.56
2024-03-10T07:03:17.693Z,99751.13
2024-03-10T07:05:44.193Z,99749.00
2024-03-10T07:08:10.917Z,99721.78
2024-03-10T07:10:37.720Z,99751.22
2024-03-10T07:13:05.049Z,99727.41
2024-03-10T07:15:32.034Z,99753.25
2024-03-10T07:17:59.053Z,99763.59
2024-03-10T07:20:26.057Z,99752.09
2024-03-10T07:22:53.068Z,99766.91
2024-03-10T07:25:19.879Z,99756.41
2024-03-10T07:27:46.422Z,99746.50
2024-03-10T07:30:13.901Z,99758.88
2024-03-10T07:32:40.562Z,99765.94
2024-03-10T07:35:10.330Z,99767.91
2024-03-10T07:37:37.065Z,99773.03
2024-03-10T07:40:08.252Z,99749.16
2024-03-10T07:42:34.768Z,99782.94
2024-03-10T07:45:01.213Z,99781.44
2024-03-10T07:47:27.962Z,99790.97
2024-03-10T07:49:54.484Z,99782.75
2024-03-10T07:52:21.978Z,99786.38
2024-03-10T07:54:48.400Z,99787.34
2024-03-10T07:57:14.867Z,99793.63
2024-03-10T07:59:41.301Z,99795.44
2024-03-10T08:02:07.775Z,99807.09
2024-03-10T08:04:34.493Z,99802.84
2024-03-10T08:07:01.029Z,99802.00
2024-03-10T08:09:27.793Z,99777.09
2024-03-10T08:11:54.388Z,99784.03
2024-03-10T08:14:22.370Z,99798.53
2024-03-10T08:16:49.472Z,99806.53
2024-03-10T08:19:16.112Z,99803.78
2024-03-10T08:21:42.617Z,99789.59
2024-03-10T08:24:10.895Z,99783.13
2024-03-10T08:26:37.569Z,99781.94
2024-03-10T08:29:04.080Z,99781.47
2024-03-10T08:31:31.627Z,99799.91
2024-03-10T08:33:58.115Z,99799.09
2024-03-10T08:36:24.962Z,99793.69
2024-03-10T08:38:52.175Z,99783.03
2024-03-10T08:41:18.692Z,99789.41
2024-03-10T08:43:45.351Z,99794.06
2024-03-10T08:46:12.604Z,99798.03
2024-03-10T08:48:39.037Z,99798.50
2024-03-10T08:51:07.039Z,99798.88
2024-03-10T08:53:34.661Z,99799.88
2024-03-10T08:56:02.230Z,99788.84
2024-03-10T08:58:29.468Z,99797.13
2024-03-10T09:00:56.092Z,99808.97
2024-03-10T09:03:23.662Z,99774.91
2024-03-10T09:05:50.258Z,99780.38
2024-03-10T09:08:16.749Z,99771.50
2024-03-10T09:10:53.078Z,99789.19
2024-03-10T09:13:25.053Z,99779.16
2024-03-10T09:15:51.522Z,99786.28
2024-03-10T09:18:18.786Z,99774.63
2024-03-10T09:20:47.187Z,99764.91
2024-03-10T09:23:14.293Z,99775.31
2024-03-10T09:25:41.802Z,99762.31
2024-03-10T09:28:08.394Z,99777.19
2024-03-10T09:30:35.013Z,99780.47
2024-03-10T09:33:01.862Z,99770.63
2024-03-10T09:35:36.405Z,99763.22
2024-03-10T09:38:06.105Z,99764.69
2024-03-10T09:40:33.424Z,99765.03
2024-03-10T09:43:06.019Z,99767.53
2024-03-10T09:45:39.420Z,99763.41
2024-03-10T09:48:10.850Z,99746.34
2024-03-10T09:50:40.534Z,99744.34
2024-03-10T09:53:09.452Z,99738.78
2024-03-10T09:55:36.065Z,99736.50
2024-03-10T09:58:11.550Z,99735.34
2024-03-10T10:00:40.696Z,99731.06
2024-03-10T10:03:10.383Z,99739.31
2024-03-10T10:05:45.902Z,99732.19
2024-03-10T10:08:13.706Z,99722.50
2024-03-10T10:10:51.014Z,99732.69
2024-03-10T10:13:24.724Z,99732.19
2024-03-10T10:15:54.574Z,99715.09
2024-03-10T10:18:22.486Z,99722.19
2024-03-10T10:20:52.653Z,99718.38
2024-03-10T10:23:24.718Z,99728.56
2024-03-10T10:25:55.200Z,99724.09
2024-03-10T10:28:21.681Z,99715.72
2024-03-10T10:30:48.287Z,99715.34
2024-03-10T10:33:15.562Z,99720.13
2024-03-10T10:35:46.689Z,99716.97
2024-03-10T10:38:14.414Z,99700.03
2024-03-10T10:40:46.521Z,99701.78
2024-03-10T10:43:13.734Z,99686.78
2024-03-10T10:45:40.353Z,99696.66
2024-03-10T10:48:09.990Z,99699.94
2024-03-10T10:50:39.091Z,99682.81
2024-03-10T10:53:07.857Z,99697.28
2024-03-10T10:55:41.313Z,99695.44
2024-03-10T10:58:12.925Z,99696.63
2024-03-10T11:00:41.666Z,99707.09
2024-03-10T11:03:18.798Z,99699.34
2024-03-10T11:06:09.625Z,99705.41
2024-03-10T11:08:38.072Z,99698.78
2024-03-10T11:11:05.371Z,99712.75
2024-03-10T11:13:33.270Z,99708.59
2024-03-10T11:16:13.961Z,99714.81
2024-03-10T11:18:40.817Z,99721.25
2024-03-10T11:21:21.055Z,99665.28
2024-03-10T11:23:49.870Z,99719.13
2024-03-10T11:26:18.846Z,99702.78
2024-03-10T11:28:50.556Z,99725.00
2024-03-10T11:31:23.392Z,99718.69
2024-03-10T11:34:09.020Z,99728.03
2024-03-10T11:36:40.649Z,99714.88
2024-03-10T11:39:08.664Z,99715.81
2024-03-10T11:41:35.617Z,99726.63
2024-03-10T11:44:02.406Z,99717.50
2024-03-10T11:46:32.826Z,99678.66
2024-03-10T11:48:59.852Z,99726.94
2024-03-10T11:51:28.919Z,99728.44
2024-03-10T11:53:56.311Z,99706.06
2024-03-10T11:56:23.615Z,99724.41
2024-03-10T11:58:52.979Z,99707.50
2024-03-10T12:01:20.338Z,99725.06
2024-03-10T12:03:48.743Z,99732.81
2024-03-10T12:06:18.698Z,99710.84
2024-03-10T12:08:45.920Z,99729.56
2024-03-10T12:11:13.860Z,99738.72
2024-03-10T12:13:44.642Z,99733.69
2024-03-10T12:16:12.291Z,99731.50
2024-03-10T12:18:42.261Z,99710.69
2024-03-10T12:21:16.886Z,99712.69
2024-03-10T12:23:44.200Z,99705.94
2024-03-10T12:26:16.488Z,99679.78
2024-03-10T12:28:44.728Z,99698.06
2024-03-10T12:31:14.457Z,99703.25
2024-03-10T12:33:43.672Z,99702.13
2024-03-10T12:36:14.093Z,99693.00
2024-03-10T12:38:41.930Z,99687.53
2024-03-10T12:41:09.221Z,99683.81
2024-03-10T12:43:37.886Z,99687.72
2024-03-10T12:46:05.622Z,99674.66
2024-03-10T12:48:34.927Z,99690.88
2024-03-10T12:51:03.275Z,99677.94
2024-03-10T12:53:29.757Z,99696.38
2024-03-10T12:55:56.852Z,99681.22
2024-03-10T12:58:23.671Z,99695.84
2024-03-10T13:00:50.140Z,99676.53
2024-03-10T13:03:16.702Z,99661.88
2024-03-10T13:05:43.184Z,99670.06
2024-03-10T13:08:10.783Z,99687.31
2024-03-10T13:10:37.398Z,99679.94
2024-03-10T13:13:08.696Z,99693.03
2024-03-10T13:15:38.716Z,99676.53
2024-03-10T13:18:08.612Z,99694.06
2024-03-10T13:20:38.143Z,99701.81
2024-03-10T13:23:06.646Z,99697.75
2024-03-10T13:25:34.184Z,99697.97
2024-03-10T13:28:01.510Z,99660.50
2024-03-10T13:30:27.979Z,99690.09
2024-03-10T13:32:54.617Z,99695.09
2024-03-10T13:35:21.215Z,99681.22
2024-03-10T13:37:48.056Z,99688.09
2024-03-10T13:40:18.684Z,99690.28
2024-03-10T13:42:48.720Z,99672.25
2024-03-10T13:45:23.250Z,99675.06
2024-03-10T13:47:59.945Z,99677.72
2024-03-10T13:50:26.599Z,99672.25
2024-03-10T13:52:53.267Z,99671.22
2024-03-10T13:55:21.953Z,99670.88
2024-03-10T13:57:49.329Z,99662.00
2024-03-10T14:00:20.196Z,99662.94
2024-03-10T14:02:46.865Z,99660.19
2024-03-10T14:05:16.069Z,99655.72
2024-03-10T14:07:44.030Z,99659.06
2024-03-10T14:10:12.051Z,99661.16
2024-03-10T14:12:39.489Z,99669.94
2024-03-10T14:15:10.593Z,99665.63
2024-03-10T14:17:42.134Z,99656.44
2024-03-10T14:20:15.081Z,99642.00
2024-03-10T14:22:46.185Z,99657.69
2024-03-10T14:25:13.820Z,99656.03
2024-03-10T14:27:49.081Z,99661.84
2024-03-10T14:30:16.065Z,99620.94
2024-03-10T14:32:42.834Z,99644.66
2024-03-10T14:35:12.592Z,99600.94
2024-03-10T14:37:44.861Z,99638.66
2024-03-10T14:40:19.202Z,99620.63
2024-03-10T14:42:47.501Z,99644.13
2024-03-10T14:45:14.091Z,99654.09
2024-03-10T14:47:40.771Z,99639.03
2024-03-10T14:50:09.498Z,99640.84
2024-03-10T14:52:36.210Z,99634.69
2024-03-10T14:55:05.374Z,99628.28
2024-03-10T14:57:32.463Z,99628.28
2024-03-10T15:00:01.125Z,99627.09
2024-03-10T15:02:28.417Z,99639.84
2024-03-10T15:04:54.979Z,99632.59
2024-03-10T15:07:23.460Z,99634.56
2024-03-10T15:09:50.121Z,99636.44
2024-03-10T15:12:17.554Z,99644.09
2024-03-10T15:14:44.549Z,99640.63
2024-03-10T15:17:13.819Z,99645.28
2024-03-10T15:19:40.306Z,99639.38
2024-03-10T15:22:08.128Z,99637.25
2024-03-10T15:24:36.796Z,99615.94
2024-03-10T15:27:07.761Z,99641.91
2024-03-10T15:29:35.913Z,99629.16
2024-03-10T15:32:03.852Z,99623.41
2024-03-10T15:34:31.625Z,99620.22
2024-03-10T15:37:00.388Z,99623.25
2024-03-10T15:39:29.058Z,99614.78
2024-03-10T15:41:56.875Z,99630.34
2024-03-10T15:44:26.067Z,99623.34
2024-03-10T15:46:53.181Z,99653.34
2024-03-10T15:49:20.610Z,99649.06
2024-03-10T15:51:47.213Z,99645.13
2024-03-10T15:54:15.414Z,99650.13
2024-03-10T15:56:42.093Z,99648.25
2024-03-10T15:59:09.312Z,99658.81
2024-03-10T16:01:35.985Z,99650.78
2024-03-10T16:04:07.079Z,99660.56
2024-03-10T16:06:33.610Z,99660.00
2024-03-10T16:09:00.313Z,99675.13
2024-03-10T16:11:27.594Z,99674.75
2024-03-10T16:14:07.844Z,99679.72
2024-03-10T16:16:34.726Z,99690.75
2024-03-10T16:19:01.946Z,99686.19
2024-03-10T16:21:37.350Z,99690.63
2024-03-10T16:24:09.046Z,99690.63
2024-03-10T16:26:35.660Z,99700.56
2024-03-10T16:29:03.049Z,99683.50
2024-03-10T16:31:30.911Z,99684.06
2024-03-10T16:33:58.053Z,99712.88
2024-03-10T16:36:24.518Z,99697.59
2024-03-10T16:38:50.990Z,99717.22
2024-03-10T16:41:17.479Z,99709.34
2024-03-10T16:43:45.064Z,99701.97
2024-03-10T16:46:13.680Z,99705.63
2024-03-10T16:48:40.656Z,99711.88
2024-03-10T16:51:10.280Z,99712.06
2024-03-10T16:53:37.341Z,99714.25
2024-03-10T16:56:04.229Z,99684.38
2024-03-10T16:58:31.075Z,99711.53
2024-03-10T17:01:00.408Z,99712.91
2024-03-10T17:03:27.007Z,99722.94
2024-03-10T17:05:56.420Z,99738.31
2024-03-10T17:08:24.702Z,99707.06
2024-03-10T17:10:51.400Z,99733.22
2024-03-10T17:13:18.820Z,99734.59
2024-03-10T17:15:45.306Z,99736.28
2024-03-10T17:18:14.115Z,99714.44
2024-03-10T17:20:41.976Z,99739.25
2024-03-10T17:23:08.855Z,99739.63
2024-03-10T17:25:36.241Z,99745.25
2024-03-10T17:28:05.489Z,99737.38
2024-03-10T17:30:33.376Z,99748.47
2024-03-10T17:32:59.950Z,99748.34
2024-03-10T17:35:27.731Z,99774.34
2024-03-10T17:37:54.324Z,99781.59
2024-03-10T17:40:28.208Z,99778.19
2024-03-10T17:42:56.366Z,99776.53
2024-03-10T17:45:23.470Z,99766.03
2024-03-10T17:47:51.259Z,99779.34
2024-03-10T17:50:18.060Z,99779.88
2024-03-10T17:52:44.651Z,99775.59
2024-03-10T17:55:11.172Z,99784.81
2024-03-10T17:57:37.623Z,99785.81
2024-03-10T18:00:07.002Z,99786.97
2024-03-10T18:02:34.055Z,99770.00
2024-03-10T18:05:00.864Z,99779.38
2024-03-10T18:07:27.744Z,99796.50
2024-03-10T18:09:55.097Z,99793.03
2024-03-10T18:12:24.521Z,99764.28
2024-03-10T18:14:51.692Z,99780.06
2024-03-10T18:17:18.672Z,99785.81
2024-03-10T18:19:45.202Z,99792.06
2024-03-10T18:22:16.859Z,99800.16
2024-03-10T18:24:46.106Z,99796.41
2024-03-10T18:27:13.053Z,99803.13
2024-03-10T18:29:39.908Z,99796.75
2024-03-10T18:32:06.801Z,99815.00
2024-03-10T18:34:33.834Z,99820.28
2024-03-10T18:37:00.307Z,99818.66
2024-03-10T18:39:26.725Z,99829.19
2024-03-10T18:41:55.762Z,99833.31
2024-03-10T18:44:22.254Z,99834.13
2024-03-10T18:46:48.925Z,99851.78
2024-03-10T18:49:15.444Z,99848.97
2024-03-10T18:51:41.940Z,99834.47
2024-03-10T18:54:09.647Z,99856.03
2024-03-10T18:56:36.142Z,99853.22
2024-03-10T18:59:02.787Z,99843.69
2024-03-10T19:01:29.350Z,99859.31
2024-03-10T19:03:56.018Z,99864.59
2024-03-10T19:06:23.804Z,99858.84
2024-03-10T19:08:50.557Z,99860.16
2024-03-10T19:11:19.096Z,99858.53
2024-03-10T19:13:46.170Z,99854.88
2024-03-10T19:16:13.662Z,99851.91
2024-03-10T19:18:40.130Z,99849.44
2024-03-10T19:21:07.193Z,99842.53
2024-03-10T19:23:34.383Z,99848.78
2024-03-10T19:26:04.668Z,99850.59
2024-03-10T19:28:31.537Z,99842.03
2024-03-10T19:31:01.097Z,99837.25
2024-03-10T19:33:28.178Z,99830.50
2024-03-10T19:35:56.231Z,99811.88
2024-03-10T19:38:22.937Z,99830.69
2024-03-10T19:40:49.740Z,99832.81
2024-03-10T19:43:16.786Z,99834.13
2024-03-10T19:45:43.622Z,99815.34
2024-03-10T19:48:12.274Z,99820.28
2024-03-10T19:50:39.068Z,99803.50
2024-03-10T19:53:05.862Z,99819.63
2024-03-10T19:55:34.317Z,99833.78
2024-03-10T19:58:00.823Z,99818.47
2024-03-10T20:00:29.244Z,99829.84
2024-03-10T20:02:55.971Z,99832.31
2024-03-10T20:05:22.534Z,99828.00
2024-03-10T20:07:49.779Z,99830.50
2024-03-10T20:10:19.482Z,99832.31
2024-03-10T20:12:48.409Z,99829.84
2024-03-10T20:15:16.186Z,99845.66
2024-03-10T20:17:48.033Z,99844.16
2024-03-10T20:20:20.796Z,99851.25
2024-03-10T20:22:48.615Z,99850.25
2024-03-10T20:25:15.352Z,99828.84
2024-03-10T20:27:41.982Z,99847.28
2024-03-10T20:30:09.811Z,99855.19
2024-03-10T20:32:39.918Z,99848.44
2024-03-10T20:35:08.198Z,99832.94
2024-03-10T20:37:34.688Z,99845.94
2024-03-10T20:40:02.064Z,99838.38
2024-03-10T20:42:30.021Z,99847.59
2024-03-10T20:44:56.912Z,99858.81
2024-03-10T20:47:24.254Z,99858.81
2024-03-10T20:49:51.170Z,99863.41
2024-03-10T20:52:18.322Z,99857.50
2024-03-10T20:54:44.955Z,99869.00
2024-03-10T20:57:11.869Z,99859.28
2024-03-10T20:59:39.675Z,99865.69
2024-03-10T21:02:08.279Z,99859.25
2024-03-10T21:04:35.688Z,99867.03
2024-03-10T21:07:02.717Z,99864.38
2024-03-10T21:09:29.460Z,99869.97
2024-03-10T21:11:56.533Z,99879.00
2024-03-10T21:14:23.211Z,99857.09
2024-03-10T21:16:50.224Z,99877.34
2024-03-10T21:19:16.712Z,99870.47
2024-03-10T21:21:43.274Z,99873.22
2024-03-10T21:24:09.794Z,99871.91
2024-03-10T21:26:36.366Z,99879.50
2024-03-10T21:29:04.415Z,99886.56
2024-03-10T21:31:30.918Z,99883.41
2024-03-10T21:33:57.469Z,99868.59
2024-03-10T21:36:24.538Z,99880.78
2024-03-10T21:38:51.713Z,99891.00
2024-03-10T21:41:18.836Z,99887.19
2024-03-10T21:43:47.042Z,99898.88
2024-03-10T21:46:13.576Z,99877.94
2024-03-10T21:48:40.816Z,99901.84
2024-03-10T21:51:07.369Z,99888.66
2024-03-10T21:53:35.903Z,99892.94
2024-03-10T21:56:07.067Z,99885.38
2024-03-10T21:58:33.578Z,99864.59
2024-03-10T22:01:01.000Z,99868.22
2024-03-10T22:03:31.429Z,99883.88
2024-03-10T22:05:57.956Z,99886.34
2024-03-10T22:08:24.457Z,99869.38
2024-03-10T22:10:50.971Z,99894.06
2024-03-10T22:13:17.998Z,99882.75
2024-03-10T22:15:44.483Z,99876.47
2024-03-10T22:18:11.396Z,99893.41
2024-03-10T22:20:38.179Z,99890.28
2024-03-10T22:23:05.662Z,99884.03
2024-03-10T22:25:32.185Z,99891.75
2024-03-10T22:27:59.003Z,99874.09
2024-03-10T22:30:28.669Z,99893.22
2024-03-10T22:32:55.370Z,99877.41
2024-03-10T22:35:22.229Z,99887.44
2024-03-10T22:37:50.699Z,99881.75
2024-03-10T22:40:20.396Z,99839.28
2024-03-10T22:42:49.502Z,99884.41
2024-03-10T22:45:24.457Z,99875.81
2024-03-10T22:47:56.813Z,99879.75
2024-03-10T22:50:24.014Z,99865.03
2024-03-10T22:52:50.734Z,99880.56
2024-03-10T22:55:20.464Z,99876.56
2024-03-10T22:57:47.537Z,99872.63
2024-03-10T23:00:24.648Z,99864.53
2024-03-10T23:02:57.055Z,99877.38
2024-03-10T23:05:28.173Z,99859.88
2024-03-10T23:08:02.076Z,99873.25
2024-03-10T23:10:29.693Z,99883.44
2024-03-10T23:12:57.852Z,99870.06
2024-03-10T23:15:25.098Z,99883.63
2024-03-10T23:17:51.890Z,99874.88
2024-03-10T23:20:25.291Z,99863.16
2024-03-10T23:22:57.221Z,99881.00
2024-03-10T23:25:25.780Z,99885.28
2024-03-10T23:27:53.783Z,99892.66
2024-03-10T23:30:21.327Z,99896.59
2024-03-10T23:32:49.880Z,99890.19
2024-03-10T23:35:17.330Z,99888.84
2024-03-10T23:37:46.798Z,99902.88
2024-03-10T23:40:13.675Z,99905.34
2024-03-10T23:42:41.480Z,99896.59
2024-03-10T23:45:14.160Z,99893.28
2024-03-10T23:47:42.418Z,99902.03
2024-03-10T23:50:12.262Z,99887.34
2024-03-10T23:52:40.343Z,99893.28
2024-03-10T23:55:08.118Z,99907.47
2024-03-10T23:57:35.107Z,99903.19
